sensor_id;sensor_type;location;lat;lon;timestamp;pressure;altitude;pressure_sealevel;temperature;humidity
13027;BME280;6580;42.680;23.324;2023-06-22T00:01:41;95650.41;;;21.33;100.00
13027;BME280;6580;42.680;23.324;2023-06-22T00:04:28;95642.91;;;21.35;100.00
13027;BME280;6580;42.680;23.324;2023-06-22T00:07:15;95640.47;;;21.14;100.00
13027;BME280;6580;42.680;23.324;2023-06-22T00:10:03;95646.34;;;20.98;100.00
13027;BME280;6580;42.680;23.324;2023-06-22T00:12:48;95637.00;;;20.81;100.00
13027;BME280;6580;42.680;23.324;2023-06-22T00:15:35;95635.94;;;20.82;100.00
13027;BME280;6580;42.680;23.324;2023-06-22T00:18:22;95640.94;;;20.85;100.00
13027;BME280;6580;42.680;23.324;2023-06-22T00:21:12;95638.66;;;20.88;100.00
13027;BME280;6580;42.680;23.324;2023-06-22T00:24:01;95632.63;;;20.80;100.00
13027;BME280;6580;42.680;23.324;2023-06-22T00:26:48;95630.13;;;20.72;100.00
13027;BME280;6580;42.680;23.324;2023-06-22T00:29:35;95621.38;;;20.70;100.00
13027;BME280;6580;42.680;23.324;2023-06-22T00:32:24;95619.69;;;20.69;100.00
13027;BME280;6580;42.680;23.324;2023-06-22T00:35:09;95617.63;;;20.71;100.00
13027;BME280;6580;42.680;23.324;2023-06-22T00:37:55;95627.00;;;20.55;100.00
13027;BME280;6580;42.680;23.324;2023-06-22T00:40:56;95622.81;;;20.66;100.00
13027;BME280;6580;42.680;23.324;2023-06-22T00:43:42;95613.03;;;20.65;100.00
13027;BME280;6580;42.680;23.324;2023-06-22T00:46:28;95616.78;;;20.64;100.00
13027;BME280;6580;42.680;23.324;2023-06-22T00:49:16;95628.88;;;20.61;100.00
13027;BME280;6580;42.680;23.324;2023-06-22T00:52:07;95621.59;;;20.81;100.00
13027;BME280;6580;42.680;23.324;2023-06-22T00:54:53;95626.13;;;20.74;100.00
13027;BME280;6580;42.680;23.324;2023-06-22T00:57:41;95616.75;;;20.77;100.00
13027;BME280;6580;42.680;23.324;2023-06-22T01:00:27;95613.88;;;20.85;100.00
13027;BME280;6580;42.680;23.324;2023-06-22T01:03:12;95628.84;;;20.74;100.00
13027;BME280;6580;42.680;23.324;2023-06-22T01:06:06;95640.50;;;20.62;100.00
13027;BME280;6580;42.680;23.324;2023-06-22T01:09:00;95634.06;;;20.69;100.00
13027;BME280;6580;42.680;23.324;2023-06-22T01:11:54;95623.03;;;20.71;100.00
13027;BME280;6580;42.680;23.324;2023-06-22T01:14:52;95634.69;;;20.58;100.00
13027;BME280;6580;42.680;23.324;2023-06-22T01:17:44;95634.69;;;20.58;100.00
13027;BME280;6580;42.680;23.324;2023-06-22T01:20:34;95635.31;;;20.67;100.00
13027;BME280;6580;42.680;23.324;2023-06-22T01:23:27;95637.81;;;20.49;100.00
13027;BME280;6580;42.680;23.324;2023-06-22T01:26:18;95643.00;;;20.44;100.00
13027;BME280;6580;42.680;23.324;2023-06-22T01:29:09;95648.22;;;20.26;100.00
13027;BME280;6580;42.680;23.324;2023-06-22T01:31:59;95648.88;;;20.54;100.00
13027;BME280;6580;42.680;23.324;2023-06-22T01:34:47;95641.16;;;20.51;100.00
13027;BME280;6580;42.680;23.324;2023-06-22T01:37:36;95655.09;;;20.42;100.00
13027;BME280;6580;42.680;23.324;2023-06-22T01:40:23;95653.84;;;20.38;100.00
13027;BME280;6580;42.680;23.324;2023-06-22T01:43:11;95659.00;;;20.13;100.00
13027;BME280;6580;42.680;23.324;2023-06-22T01:46:00;95658.00;;;20.27;100.00
13027;BME280;6580;42.680;23.324;2023-06-22T01:48:54;95661.94;;;20.25;100.00
13027;BME280;6580;42.680;23.324;2023-06-22T01:51:44;95659.66;;;20.35;100.00
13027;BME280;6580;42.680;23.324;2023-06-22T01:54:29;95658.84;;;20.34;100.00
13027;BME280;6580;42.680;23.324;2023-06-22T01:57:15;95665.06;;;20.35;100.00
13027;BME280;6580;42.680;23.324;2023-06-22T02:00:03;95665.69;;;20.30;100.00
13027;BME280;6580;42.680;23.324;2023-06-22T02:02:58;95668.00;;;20.27;100.00
13027;BME280;6580;42.680;23.324;2023-06-22T02:05:50;95675.25;;;20.13;100.00
13027;BME280;6580;42.680;23.324;2023-06-22T02:08:45;95676.28;;;20.25;100.00
13027;BME280;6580;42.680;23.324;2023-06-22T02:11:33;95682.31;;;20.14;100.00
13027;BME280;6580;42.680;23.324;2023-06-22T02:14:20;95679.31;;;19.90;100.00
13027;BME280;6580;42.680;23.324;2023-06-22T02:17:09;95672.03;;;19.90;100.00
13027;BME280;6580;42.680;23.324;2023-06-22T02:19:55;95665.63;;;20.04;100.00
13027;BME280;6580;42.680;23.324;2023-06-22T02:22:42;95658.72;;;19.82;100.00
13027;BME280;6580;42.680;23.324;2023-06-22T02:25:29;95673.56;;;19.99;100.00
13027;BME280;6580;42.680;23.324;2023-06-22T02:28:15;95664.31;;;19.81;100.00
13027;BME280;6580;42.680;23.324;2023-06-22T02:31:05;95664.69;;;19.78;100.00
13027;BME280;6580;42.680;23.324;2023-06-22T02:33:51;95663.69;;;19.85;100.00
13027;BME280;6580;42.680;23.324;2023-06-22T02:36:39;95665.16;;;19.81;100.00
13027;BME280;6580;42.680;23.324;2023-06-22T02:39:34;95665.81;;;19.96;100.00
13027;BME280;6580;42.680;23.324;2023-06-22T02:42:22;95668.69;;;19.82;100.00
13027;BME280;6580;42.680;23.324;2023-06-22T02:45:09;95673.84;;;19.70;100.00
13027;BME280;6580;42.680;23.324;2023-06-22T02:47:55;95672.41;;;19.74;100.00
13027;BME280;6580;42.680;23.324;2023-06-22T02:50:41;95680.66;;;19.66;100.00
13027;BME280;6580;42.680;23.324;2023-06-22T02:53:29;95682.69;;;19.51;100.00
13027;BME280;6580;42.680;23.324;2023-06-22T02:56:16;95674.00;;;19.56;100.00
13027;BME280;6580;42.680;23.324;2023-06-22T02:59:02;95683.09;;;19.48;100.00
13027;BME280;6580;42.680;23.324;2023-06-22T03:01:50;95687.91;;;19.53;100.00
13027;BME280;6580;42.680;23.324;2023-06-22T03:04:36;95674.81;;;19.50;100.00
13027;BME280;6580;42.680;23.324;2023-06-22T03:07:21;95676.59;;;19.37;100.00
13027;BME280;6580;42.680;23.324;2023-06-22T03:10:15;95666.69;;;19.50;100.00
13027;BME280;6580;42.680;23.324;2023-06-22T03:13:01;95683.22;;;19.74;100.00
13027;BME280;6580;42.680;23.324;2023-06-22T03:15:46;95694.91;;;19.88;100.00
13027;BME280;6580;42.680;23.324;2023-06-22T03:18:31;95694.16;;;20.00;100.00
13027;BME280;6580;42.680;23.324;2023-06-22T03:21:16;95702.28;;;20.07;100.00
13027;BME280;6580;42.680;23.324;2023-06-22T03:24:02;95703.31;;;20.06;100.00
13027;BME280;6580;42.680;23.324;2023-06-22T03:26:52;95702.47;;;20.05;100.00
13027;BME280;6580;42.680;23.324;2023-06-22T03:29:38;95700.84;;;20.11;100.00
13027;BME280;6580;42.680;23.324;2023-06-22T03:32:24;95694.59;;;20.10;100.00
13027;BME280;6580;42.680;23.324;2023-06-22T03:35:12;95704.47;;;19.90;100.00
13027;BME280;6580;42.680;23.324;2023-06-22T03:38:02;95710.91;;;19.89;100.00
13027;BME280;6580;42.680;23.324;2023-06-22T03:40:48;95712.47;;;20.11;100.00
13027;BME280;6580;42.680;23.324;2023-06-22T03:43:37;95713.28;;;20.05;100.00
13027;BME280;6580;42.680;23.324;2023-06-22T03:46:23;95716.97;;;19.91;100.00
13027;BME280;6580;42.680;23.324;2023-06-22T03:49:09;95714.94;;;20.00;100.00
13027;BME280;6580;42.680;23.324;2023-06-22T03:51:55;95721.97;;;19.94;100.00
13027;BME280;6580;42.680;23.324;2023-06-22T03:54:41;95728.28;;;20.01;100.00
13027;BME280;6580;42.680;23.324;2023-06-22T03:57:26;95722.44;;;20.04;100.00
13027;BME280;6580;42.680;23.324;2023-06-22T04:00:16;95728.09;;;20.22;100.00
13027;BME280;6580;42.680;23.324;2023-06-22T04:03:03;95721.88;;;20.22;100.00
13027;BME280;6580;42.680;23.324;2023-06-22T04:05:52;95735.00;;;20.38;100.00
13027;BME280;6580;42.680;23.324;2023-06-22T04:08:40;95729.38;;;20.26;100.00
13027;BME280;6580;42.680;23.324;2023-06-22T04:11:26;95736.03;;;20.30;100.00
13027;BME280;6580;42.680;23.324;2023-06-22T04:14:12;95714.19;;;20.32;100.00
13027;BME280;6580;42.680;23.324;2023-06-22T04:16:59;95708.81;;;20.57;100.00
13027;BME280;6580;42.680;23.324;2023-06-22T04:19:45;95709.22;;;20.61;100.00
13027;BME280;6580;42.680;23.324;2023-06-22T04:22:31;95701.72;;;20.50;100.00
13027;BME280;6580;42.680;23.324;2023-06-22T04:25:17;95697.59;;;20.86;100.00
13027;BME280;6580;42.680;23.324;2023-06-22T04:28:03;95686.97;;;20.72;100.00
13027;BME280;6580;42.680;23.324;2023-06-22T04:30:51;95687.16;;;20.77;100.00
13027;BME280;6580;42.680;23.324;2023-06-22T04:33:38;95678.44;;;21.01;100.00
13027;BME280;6580;42.680;23.324;2023-06-22T04:36:24;95695.50;;;20.95;100.00
13027;BME280;6580;42.680;23.324;2023-06-22T04:39:15;95695.69;;;21.13;100.00
13027;BME280;6580;42.680;23.324;2023-06-22T04:42:00;95699.88;;;21.02;100.00
13027;BME280;6580;42.680;23.324;2023-06-22T04:44:46;95697.97;;;21.16;100.00
13027;BME280;6580;42.680;23.324;2023-06-22T04:47:32;95684.47;;;21.09;100.00
13027;BME280;6580;42.680;23.324;2023-06-22T04:50:19;95692.13;;;21.32;100.00
13027;BME280;6580;42.680;23.324;2023-06-22T04:53:08;95702.13;;;21.38;100.00
13027;BME280;6580;42.680;23.324;2023-06-22T04:55:56;95692.53;;;21.35;100.00
13027;BME280;6580;42.680;23.324;2023-06-22T04:58:42;95702.50;;;21.48;100.00
13027;BME280;6580;42.680;23.324;2023-06-22T05:01:29;95705.38;;;21.78;100.00
13027;BME280;6580;42.680;23.324;2023-06-22T05:04:15;95706.38;;;22.21;100.00
13027;BME280;6580;42.680;23.324;2023-06-22T05:07:02;95710.69;;;22.72;100.00
13027;BME280;6580;42.680;23.324;2023-06-22T05:09:50;95699.97;;;23.51;99.38
13027;BME280;6580;42.680;23.324;2023-06-22T05:12:36;95702.41;;;24.12;89.72
13027;BME280;6580;42.680;23.324;2023-06-22T05:15:21;95696.03;;;24.66;86.12
13027;BME280;6580;42.680;23.324;2023-06-22T05:18:11;95684.88;;;25.54;77.86
13027;BME280;6580;42.680;23.324;2023-06-22T05:20:58;95674.88;;;25.71;76.61
13027;BME280;6580;42.680;23.324;2023-06-22T05:23:45;95688.44;;;25.20;76.75
13027;BME280;6580;42.680;23.324;2023-06-22T05:26:38;95695.84;;;26.04;74.89
13027;BME280;6580;42.680;23.324;2023-06-22T05:29:25;95689.34;;;26.89;69.55
13027;BME280;6580;42.680;23.324;2023-06-22T05:32:19;95689.84;;;26.58;66.53
13027;BME280;6580;42.680;23.324;2023-06-22T05:35:05;95703.78;;;26.57;67.72
13027;BME280;6580;42.680;23.324;2023-06-22T05:37:52;95702.38;;;26.54;67.40
13027;BME280;6580;42.680;23.324;2023-06-22T05:40:41;95709.53;;;26.72;66.64
13027;BME280;6580;42.680;23.324;2023-06-22T05:43:26;95713.84;;;26.84;64.79
13027;BME280;6580;42.680;23.324;2023-06-22T05:46:13;95718.81;;;27.15;64.48
13027;BME280;6580;42.680;23.324;2023-06-22T05:49:00;95721.16;;;27.23;62.37
13027;BME280;6580;42.680;23.324;2023-06-22T05:51:46;95726.06;;;27.91;59.21
13027;BME280;6580;42.680;23.324;2023-06-22T05:54:32;95719.56;;;27.27;61.21
13027;BME280;6580;42.680;23.324;2023-06-22T05:57:22;95718.41;;;28.10;59.47
13027;BME280;6580;42.680;23.324;2023-06-22T06:00:09;95720.09;;;27.94;57.95
13027;BME280;6580;42.680;23.324;2023-06-22T06:02:57;95721.69;;;28.28;57.48
13027;BME280;6580;42.680;23.324;2023-06-22T06:05:47;95722.31;;;27.27;59.17
13027;BME280;6580;42.680;23.324;2023-06-22T06:08:32;95700.44;;;28.40;56.93
13027;BME280;6580;42.680;23.324;2023-06-22T06:11:19;95709.41;;;27.60;59.33
13027;BME280;6580;42.680;23.324;2023-06-22T06:14:08;95708.66;;;27.97;58.60
13027;BME280;6580;42.680;23.324;2023-06-22T06:16:53;95694.66;;;29.42;54.04
13027;BME280;6580;42.680;23.324;2023-06-22T06:19:38;95693.44;;;29.60;53.03
13027;BME280;6580;42.680;23.324;2023-06-22T06:22:24;95688.91;;;29.80;51.32
13027;BME280;6580;42.680;23.324;2023-06-22T06:25:10;95686.06;;;30.06;50.91
13027;BME280;6580;42.680;23.324;2023-06-22T06:27:59;95687.78;;;30.22;50.04
13027;BME280;6580;42.680;23.324;2023-06-22T06:31:00;95692.53;;;29.91;50.93
13027;BME280;6580;42.680;23.324;2023-06-22T06:33:50;95691.84;;;30.05;48.68
13027;BME280;6580;42.680;23.324;2023-06-22T06:36:37;95687.78;;;31.04;47.26
13027;BME280;6580;42.680;23.324;2023-06-22T06:39:23;95682.06;;;31.35;46.42
13027;BME280;6580;42.680;23.324;2023-06-22T06:42:09;95671.34;;;31.38;46.19
13027;BME280;6580;42.680;23.324;2023-06-22T06:44:55;95674.28;;;30.82;46.93
13027;BME280;6580;42.680;23.324;2023-06-22T06:47:45;95673.81;;;30.34;47.63
13027;BME280;6580;42.680;23.324;2023-06-22T06:50:31;95670.66;;;30.05;49.18
13027;BME280;6580;42.680;23.324;2023-06-22T06:53:17;95670.59;;;29.96;49.03
13027;BME280;6580;42.680;23.324;2023-06-22T06:56:04;95664.78;;;30.43;48.59
13027;BME280;6580;42.680;23.324;2023-06-22T06:58:51;95664.91;;;30.12;48.32
13027;BME280;6580;42.680;23.324;2023-06-22T07:01:37;95673.16;;;30.68;46.79
13027;BME280;6580;42.680;23.324;2023-06-22T07:04:24;95652.59;;;31.60;44.43
13027;BME280;6580;42.680;23.324;2023-06-22T07:07:10;95673.53;;;32.69;41.76
13027;BME280;6580;42.680;23.324;2023-06-22T07:09:56;95665.84;;;33.48;39.76
13027;BME280;6580;42.680;23.324;2023-06-22T07:12:43;95649.97;;;33.58;39.80
13027;BME280;6580;42.680;23.324;2023-06-22T07:15:30;95653.97;;;33.81;39.39
13027;BME280;6580;42.680;23.324;2023-06-22T07:18:15;95653.06;;;34.37;38.77
13027;BME280;6580;42.680;23.324;2023-06-22T07:21:02;95664.84;;;34.24;38.17
13027;BME280;6580;42.680;23.324;2023-06-22T07:23:50;95667.47;;;33.16;38.86
13027;BME280;6580;42.680;23.324;2023-06-22T07:26:36;95646.13;;;34.16;37.80
13027;BME280;6580;42.680;23.324;2023-06-22T07:29:22;95650.63;;;34.96;36.76
13027;BME280;6580;42.680;23.324;2023-06-22T07:32:08;95650.81;;;34.62;36.80
13027;BME280;6580;42.680;23.324;2023-06-22T07:34:54;95654.16;;;34.83;36.42
13027;BME280;6580;42.680;23.324;2023-06-22T07:37:42;95655.56;;;34.80;36.57
13027;BME280;6580;42.680;23.324;2023-06-22T07:40:30;95669.81;;;35.11;36.63
13027;BME280;6580;42.680;23.324;2023-06-22T07:43:15;95665.13;;;35.11;36.33
13027;BME280;6580;42.680;23.324;2023-06-22T07:46:01;95653.94;;;35.35;35.57
13027;BME280;6580;42.680;23.324;2023-06-22T07:48:46;95654.44;;;36.19;34.54
13027;BME280;6580;42.680;23.324;2023-06-22T07:51:31;95656.63;;;35.40;35.28
13027;BME280;6580;42.680;23.324;2023-06-22T07:54:18;95658.69;;;35.98;34.71
13027;BME280;6580;42.680;23.324;2023-06-22T07:57:04;95654.88;;;35.94;34.92
13027;BME280;6580;42.680;23.324;2023-06-22T07:59:50;95644.16;;;36.59;33.56
13027;BME280;6580;42.680;23.324;2023-06-22T08:02:37;95649.31;;;35.30;34.59
13027;BME280;6580;42.680;23.324;2023-06-22T08:05:24;95632.66;;;33.81;37.37
13027;BME280;6580;42.680;23.324;2023-06-22T08:08:09;95644.75;;;33.62;38.33
13027;BME280;6580;42.680;23.324;2023-06-22T08:10:57;95635.56;;;33.95;38.50
13027;BME280;6580;42.680;23.324;2023-06-22T08:13:42;95638.25;;;34.28;38.89
13027;BME280;6580;42.680;23.324;2023-06-22T08:16:31;95634.44;;;33.96;38.90
13027;BME280;6580;42.680;23.324;2023-06-22T08:19:17;95632.00;;;33.32;41.04
13027;BME280;6580;42.680;23.324;2023-06-22T08:22:03;95631.88;;;34.28;38.42
13027;BME280;6580;42.680;23.324;2023-06-22T08:24:49;95627.97;;;34.75;38.38
13027;BME280;6580;42.680;23.324;2023-06-22T08:27:36;95618.78;;;35.17;37.83
13027;BME280;6580;42.680;23.324;2023-06-22T08:30:23;95627.03;;;33.91;39.36
13027;BME280;6580;42.680;23.324;2023-06-22T08:33:11;95623.78;;;34.08;39.17
13027;BME280;6580;42.680;23.324;2023-06-22T08:36:01;95621.59;;;34.05;38.47
13027;BME280;6580;42.680;23.324;2023-06-22T08:38:50;95628.16;;;32.90;40.45
13027;BME280;6580;42.680;23.324;2023-06-22T08:41:36;95635.22;;;32.53;41.41
13027;BME280;6580;42.680;23.324;2023-06-22T08:44:23;95630.34;;;33.31;39.20
13027;BME280;6580;42.680;23.324;2023-06-22T08:47:09;95628.56;;;34.02;37.37
13027;BME280;6580;42.680;23.324;2023-06-22T08:49:56;95625.56;;;34.87;37.44
13027;BME280;6580;42.680;23.324;2023-06-22T08:52:43;95621.22;;;35.18;37.23
13027;BME280;6580;42.680;23.324;2023-06-22T08:55:29;95617.53;;;35.73;36.83
13027;BME280;6580;42.680;23.324;2023-06-22T08:58:15;95611.00;;;36.76;35.46
13027;BME280;6580;42.680;23.324;2023-06-22T09:01:06;95597.19;;;36.50;33.55
13027;BME280;6580;42.680;23.324;2023-06-22T09:03:51;95610.59;;;36.96;33.42
13027;BME280;6580;42.680;23.324;2023-06-22T09:06:44;95580.31;;;37.52;32.98
13027;BME280;6580;42.680;23.324;2023-06-22T09:09:37;95590.22;;;38.19;32.45
13027;BME280;6580;42.680;23.324;2023-06-22T09:12:23;95600.34;;;38.15;31.54
13027;BME280;6580;42.680;23.324;2023-06-22T09:15:11;95598.78;;;37.48;31.80
13027;BME280;6580;42.680;23.324;2023-06-22T09:17:57;95588.50;;;37.13;32.63
13027;BME280;6580;42.680;23.324;2023-06-22T09:20:43;95603.25;;;36.65;32.09
13027;BME280;6580;42.680;23.324;2023-06-22T09:23:35;95607.91;;;36.91;32.13
13027;BME280;6580;42.680;23.324;2023-06-22T09:26:22;95598.50;;;37.36;31.23
13027;BME280;6580;42.680;23.324;2023-06-22T09:29:10;95604.47;;;37.08;31.46
13027;BME280;6580;42.680;23.324;2023-06-22T09:31:56;95605.09;;;36.56;32.38
13027;BME280;6580;42.680;23.324;2023-06-22T09:34:44;95607.25;;;36.19;33.05
13027;BME280;6580;42.680;23.324;2023-06-22T09:37:31;95603.16;;;37.05;31.62
13027;BME280;6580;42.680;23.324;2023-06-22T09:40:22;95599.84;;;38.13;30.36
13027;BME280;6580;42.680;23.324;2023-06-22T09:43:07;95599.78;;;38.26;30.14
13027;BME280;6580;42.680;23.324;2023-06-22T09:45:53;95600.84;;;39.20;29.02
13027;BME280;6580;42.680;23.324;2023-06-22T09:48:38;95588.47;;;39.80;28.14
13027;BME280;6580;42.680;23.324;2023-06-22T09:51:25;95591.31;;;39.12;28.57
13027;BME280;6580;42.680;23.324;2023-06-22T09:54:11;95578.16;;;37.49;30.29
13027;BME280;6580;42.680;23.324;2023-06-22T09:56:58;95586.53;;;36.78;31.85
13027;BME280;6580;42.680;23.324;2023-06-22T09:59:46;95567.88;;;38.49;29.61
13027;BME280;6580;42.680;23.324;2023-06-22T10:02:32;95580.94;;;39.04;29.17
13027;BME280;6580;42.680;23.324;2023-06-22T10:05:17;95578.84;;;39.27;28.17
13027;BME280;6580;42.680;23.324;2023-06-22T10:08:06;95579.34;;;39.20;28.55
13027;BME280;6580;42.680;23.324;2023-06-22T10:10:54;95573.06;;;37.21;30.68
13027;BME280;6580;42.680;23.324;2023-06-22T10:13:43;95571.22;;;37.60;30.76
13027;BME280;6580;42.680;23.324;2023-06-22T10:16:30;95570.75;;;37.66;30.31
13027;BME280;6580;42.680;23.324;2023-06-22T10:19:16;95568.78;;;35.85;31.95
13027;BME280;6580;42.680;23.324;2023-06-22T10:22:03;95560.94;;;37.91;30.76
13027;BME280;6580;42.680;23.324;2023-06-22T10:24:49;95555.63;;;37.51;29.84
13027;BME280;6580;42.680;23.324;2023-06-22T10:27:37;95566.66;;;37.64;30.20
13027;BME280;6580;42.680;23.324;2023-06-22T10:30:27;95568.56;;;35.68;32.43
13027;BME280;6580;42.680;23.324;2023-06-22T10:33:14;95563.66;;;35.47;33.18
13027;BME280;6580;42.680;23.324;2023-06-22T10:36:01;95566.31;;;35.52;33.15
13027;BME280;6580;42.680;23.324;2023-06-22T10:38:51;95550.81;;;36.50;31.18
13027;BME280;6580;42.680;23.324;2023-06-22T10:41:41;95545.16;;;35.29;31.64
13027;BME280;6580;42.680;23.324;2023-06-22T10:44:26;95545.03;;;36.95;29.83
13027;BME280;6580;42.680;23.324;2023-06-22T10:47:12;95555.72;;;37.67;29.41
13027;BME280;6580;42.680;23.324;2023-06-22T10:49:58;95546.44;;;38.50;28.32
13027;BME280;6580;42.680;23.324;2023-06-22T10:52:45;95547.06;;;38.38;28.02
13027;BME280;6580;42.680;23.324;2023-06-22T10:55:31;95550.59;;;38.69;27.69
13027;BME280;6580;42.680;23.324;2023-06-22T10:58:19;95538.91;;;38.59;27.11
13027;BME280;6580;42.680;23.324;2023-06-22T11:01:06;95540.97;;;39.17;26.91
13027;BME280;6580;42.680;23.324;2023-06-22T11:03:52;95533.22;;;39.48;27.72
13027;BME280;6580;42.680;23.324;2023-06-22T11:06:40;95535.03;;;39.44;27.67
13027;BME280;6580;42.680;23.324;2023-06-22T11:09:27;95526.50;;;38.81;26.68
13027;BME280;6580;42.680;23.324;2023-06-22T11:12:13;95540.06;;;38.58;26.43
13027;BME280;6580;42.680;23.324;2023-06-22T11:15:03;95530.53;;;38.59;26.53
13027;BME280;6580;42.680;23.324;2023-06-22T11:17:50;95532.56;;;39.34;26.65
13027;BME280;6580;42.680;23.324;2023-06-22T11:20:36;95523.53;;;39.46;25.83
13027;BME280;6580;42.680;23.324;2023-06-22T11:23:24;95521.28;;;37.03;29.01
13027;BME280;6580;42.680;23.324;2023-06-22T11:26:12;95524.91;;;35.74;31.31
13027;BME280;6580;42.680;23.324;2023-06-22T11:28:58;95512.78;;;37.08;30.27
13027;BME280;6580;42.680;23.324;2023-06-22T11:31:45;95513.50;;;37.65;29.05
13027;BME280;6580;42.680;23.324;2023-06-22T11:34:31;95494.91;;;37.00;30.51
13027;BME280;6580;42.680;23.324;2023-06-22T11:37:16;95515.03;;;36.22;30.64
13027;BME280;6580;42.680;23.324;2023-06-22T11:40:02;95503.63;;;35.56;30.61
13027;BME280;6580;42.680;23.324;2023-06-22T11:42:53;95512.13;;;35.14;32.02
13027;BME280;6580;42.680;23.324;2023-06-22T11:45:39;95521.53;;;34.81;32.17
13027;BME280;6580;42.680;23.324;2023-06-22T11:48:28;95511.28;;;33.85;32.26
13027;BME280;6580;42.680;23.324;2023-06-22T11:51:14;95504.50;;;33.72;33.67
13027;BME280;6580;42.680;23.324;2023-06-22T11:53:59;95508.63;;;33.46;33.40
13027;BME280;6580;42.680;23.324;2023-06-22T11:56:45;95490.94;;;33.24;34.27
13027;BME280;6580;42.680;23.324;2023-06-22T11:59:30;95494.72;;;34.22;34.41
13027;BME280;6580;42.680;23.324;2023-06-22T12:02:19;95511.97;;;34.92;34.60
13027;BME280;6580;42.680;23.324;2023-06-22T12:05:07;95501.72;;;35.38;32.77
13027;BME280;6580;42.680;23.324;2023-06-22T12:07:53;95507.84;;;35.22;32.85
13027;BME280;6580;42.680;23.324;2023-06-22T12:10:38;95491.06;;;35.00;34.66
13027;BME280;6580;42.680;23.324;2023-06-22T12:13:24;95510.97;;;34.46;35.24
13027;BME280;6580;42.680;23.324;2023-06-22T12:16:11;95519.72;;;34.17;36.65
13027;BME280;6580;42.680;23.324;2023-06-22T12:18:57;95514.72;;;33.72;36.92
13027;BME280;6580;42.680;23.324;2023-06-22T12:21:44;95512.16;;;33.28;37.91
13027;BME280;6580;42.680;23.324;2023-06-22T12:24:30;95514.56;;;32.73;44.83
13027;BME280;6580;42.680;23.324;2023-06-22T12:27:17;95528.19;;;32.12;43.86
13027;BME280;6580;42.680;23.324;2023-06-22T12:30:05;95540.47;;;31.51;45.46
13027;BME280;6580;42.680;23.324;2023-06-22T12:32:50;95567.75;;;30.53;49.24
13027;BME280;6580;42.680;23.324;2023-06-22T12:35:36;95558.66;;;29.76;55.20
13027;BME280;6580;42.680;23.324;2023-06-22T12:38:22;95571.41;;;29.92;55.49
13027;BME280;6580;42.680;23.324;2023-06-22T12:41:09;95579.19;;;29.59;57.16
13027;BME280;6580;42.680;23.324;2023-06-22T12:43:55;95586.63;;;29.22;58.87
13027;BME280;6580;42.680;23.324;2023-06-22T12:46:40;95578.38;;;28.86;61.40
13027;BME280;6580;42.680;23.324;2023-06-22T12:49:26;95582.59;;;28.98;62.40
13027;BME280;6580;42.680;23.324;2023-06-22T12:52:11;95582.34;;;28.99;62.94
13027;BME280;6580;42.680;23.324;2023-06-22T12:54:58;95596.09;;;29.04;64.63
13027;BME280;6580;42.680;23.324;2023-06-22T12:57:43;95593.78;;;28.92;67.18
13027;BME280;6580;42.680;23.324;2023-06-22T13:00:29;95587.44;;;28.86;65.19
13027;BME280;6580;42.680;23.324;2023-06-22T13:03:14;95593.09;;;28.48;81.34
13027;BME280;6580;42.680;23.324;2023-06-22T13:06:00;95601.41;;;28.32;99.86
13027;BME280;6580;42.680;23.324;2023-06-22T13:08:46;95594.59;;;28.34;100.00
13027;BME280;6580;42.680;23.324;2023-06-22T13:11:34;95595.78;;;28.43;93.85
13027;BME280;6580;42.680;23.324;2023-06-22T13:14:19;95595.47;;;28.66;99.76
13027;BME280;6580;42.680;23.324;2023-06-22T13:17:05;95611.13;;;28.44;98.98
13027;BME280;6580;42.680;23.324;2023-06-22T13:19:54;95610.41;;;28.27;100.00
13027;BME280;6580;42.680;23.324;2023-06-22T13:22:39;95618.63;;;28.06;100.00
13027;BME280;6580;42.680;23.324;2023-06-22T13:25:27;95615.69;;;27.70;97.50
13027;BME280;6580;42.680;23.324;2023-06-22T13:28:14;95618.16;;;26.84;100.00
13027;BME280;6580;42.680;23.324;2023-06-22T13:30:59;95598.53;;;26.87;97.51
13027;BME280;6580;42.680;23.324;2023-06-22T13:33:45;95597.13;;;26.68;94.80
13027;BME280;6580;42.680;23.324;2023-06-22T13:36:32;95593.38;;;26.58;93.21
13027;BME280;6580;42.680;23.324;2023-06-22T13:39:17;95577.00;;;26.58;89.35
13027;BME280;6580;42.680;23.324;2023-06-22T13:42:03;95570.28;;;26.82;96.30
13027;BME280;6580;42.680;23.324;2023-06-22T13:44:53;95568.06;;;27.33;91.64
13027;BME280;6580;42.680;23.324;2023-06-22T13:47:40;95568.22;;;27.43;85.83
13027;BME280;6580;42.680;23.324;2023-06-22T13:50:26;95567.78;;;27.51;84.80
13027;BME280;6580;42.680;23.324;2023-06-22T13:53:14;95564.91;;;27.41;82.59
13027;BME280;6580;42.680;23.324;2023-06-22T13:56:00;95561.28;;;27.73;85.56
13027;BME280;6580;42.680;23.324;2023-06-22T13:58:45;95560.88;;;27.65;86.03
13027;BME280;6580;42.680;23.324;2023-06-22T14:01:32;95569.16;;;27.70;86.85
13027;BME280;6580;42.680;23.324;2023-06-22T14:04:17;95578.03;;;27.39;93.49
13027;BME280;6580;42.680;23.324;2023-06-22T14:07:03;95576.84;;;27.51;88.24
13027;BME280;6580;42.680;23.324;2023-06-22T14:09:49;95575.06;;;27.62;88.86
13027;BME280;6580;42.680;23.324;2023-06-22T14:12:34;95588.75;;;27.62;90.92
13027;BME280;6580;42.680;23.324;2023-06-22T14:15:20;95587.19;;;27.66;88.54
13027;BME280;6580;42.680;23.324;2023-06-22T14:18:08;95589.16;;;27.70;96.70
13027;BME280;6580;42.680;23.324;2023-06-22T14:20:54;95594.56;;;27.49;100.00
13027;BME280;6580;42.680;23.324;2023-06-22T14:23:40;95591.50;;;27.07;99.35
13027;BME280;6580;42.680;23.324;2023-06-22T14:26:26;95608.66;;;26.70;100.00
13027;BME280;6580;42.680;23.324;2023-06-22T14:29:11;95599.38;;;27.20;100.00
13027;BME280;6580;42.680;23.324;2023-06-22T14:31:57;95598.91;;;27.45;97.86
13027;BME280;6580;42.680;23.324;2023-06-22T14:34:45;95598.03;;;27.61;95.16
13027;BME280;6580;42.680;23.324;2023-06-22T14:37:30;95603.41;;;27.34;98.05
13027;BME280;6580;42.680;23.324;2023-06-22T14:40:17;95593.50;;;27.50;99.32
13027;BME280;6580;42.680;23.324;2023-06-22T14:43:02;95593.94;;;27.63;97.31